sensor_id;sensor_type;location;lat;lon;timestamp;temperature;humidity
6429;DHT22;3247;48.946;10.220;2022-09-27T00:01:57;9.80;99.90
6429;DHT22;3247;48.946;10.220;2022-09-27T00:04:23;9.80;99.90
6429;DHT22;3247;48.946;10.220;2022-09-27T00:06:48;9.90;99.90
6429;DHT22;3247;48.946;10.220;2022-09-27T00:09:15;9.70;99.90
6429;DHT22;3247;48.946;10.220;2022-09-27T00:11:40;9.70;99.90
6429;DHT22;3247;48.946;10.220;2022-09-27T00:14:10;9.80;99.90
6429;DHT22;3247;48.946;10.220;2022-09-27T00:16:36;9.70;99.90
6429;DHT22;3247;48.946;10.220;2022-09-27T00:19:03;9.70;99.90
6429;DHT22;3247;48.946;10.220;2022-09-27T00:21:29;9.70;99.90
6429;DHT22;3247;48.946;10.220;2022-09-27T00:24:02;9.70;99.90
6429;DHT22;3247;48.946;10.220;2022-09-27T00:26:28;9.60;99.90
6429;DHT22;3247;48.946;10.220;2022-09-27T00:28:54;9.60;99.90
6429;DHT22;3247;48.946;10.220;2022-09-27T00:31:24;9.50;99.90
6429;DHT22;3247;48.946;10.220;2022-09-27T00:33:51;9.50;99.90
6429;DHT22;3247;48.946;10.220;2022-09-27T00:36:17;9.50;99.90
6429;DHT22;3247;48.946;10.220;2022-09-27T00:38:43;9.40;99.90
6429;DHT22;3247;48.946;10.220;2022-09-27T00:49:39;9.30;99.90
6429;DHT22;3247;48.946;10.220;2022-09-27T00:52:10;9.30;99.90
6429;DHT22;3247;48.946;10.220;2022-09-27T00:54:38;9.30;99.90
6429;DHT22;3247;48.946;10.220;2022-09-27T00:57:04;9.20;99.90
6429;DHT22;3247;48.946;10.220;2022-09-27T01:00:05;9.20;99.90
6429;DHT22;3247;48.946;10.220;2022-09-27T01:02:22;9.10;99.90
6429;DHT22;3247;48.946;10.220;2022-09-27T01:04:47;9.10;99.90
6429;DHT22;3247;48.946;10.220;2022-09-27T01:07:14;9.10;99.90
6429;DHT22;3247;48.946;10.220;2022-09-27T01:09:39;9.20;99.90
6429;DHT22;3247;48.946;10.220;2022-09-27T01:22:28;8.90;99.90
6429;DHT22;3247;48.946;10.220;2022-09-27T01:28:05;8.90;99.90
6429;DHT22;3247;48.946;10.220;2022-09-27T01:30:41;8.90;99.90
6429;DHT22;3247;48.946;10.220;2022-09-27T01:33:52;8.90;99.90
6429;DHT22;3247;48.946;10.220;2022-09-27T01:41:23;9.00;99.90
6429;DHT22;3247;48.946;10.220;2022-09-27T01:43:54;9.00;99.90
6429;DHT22;3247;48.946;10.220;2022-09-27T01:46:24;9.10;99.90
6429;DHT22;3247;48.946;10.220;2022-09-27T01:48:50;9.30;99.90
6429;DHT22;3247;48.946;10.220;2022-09-27T01:51:21;9.10;99.90
6429;DHT22;3247;48.946;10.220;2022-09-27T01:53:49;9.10;99.90
6429;DHT22;3247;48.946;10.220;2022-09-27T01:56:17;9.20;99.90
6429;DHT22;3247;48.946;10.220;2022-09-27T01:58:46;9.20;99.90
6429;DHT22;3247;48.946;10.220;2022-09-27T02:01:14;9.20;99.90
6429;DHT22;3247;48.946;10.220;2022-09-27T02:03:43;9.20;99.90
6429;DHT22;3247;48.946;10.220;2022-09-27T02:06:11;9.20;99.90
6429;DHT22;3247;48.946;10.220;2022-09-27T02:08:40;9.20;99.90
6429;DHT22;3247;48.946;10.220;2022-09-27T02:11:11;9.20;99.90
6429;DHT22;3247;48.946;10.220;2022-09-27T02:13:38;9.20;99.90
6429;DHT22;3247;48.946;10.220;2022-09-27T02:18:33;9.30;99.90
6429;DHT22;3247;48.946;10.220;2022-09-27T02:21:02;9.30;99.90
6429;DHT22;3247;48.946;10.220;2022-09-27T02:23:40;9.30;99.90
6429;DHT22;3247;48.946;10.220;2022-09-27T02:26:19;9.30;99.90
6429;DHT22;3247;48.946;10.220;2022-09-27T02:28:48;9.30;99.90
6429;DHT22;3247;48.946;10.220;2022-09-27T02:31:16;9.20;99.90
6429;DHT22;3247;48.946;10.220;2022-09-27T02:33:43;9.30;99.90
6429;DHT22;3247;48.946;10.220;2022-09-27T02:36:09;9.30;99.90
6429;DHT22;3247;48.946;10.220;2022-09-27T02:38:35;9.30;99.90
6429;DHT22;3247;48.946;10.220;2022-09-27T02:41:01;9.20;99.90
6429;DHT22;3247;48.946;10.220;2022-09-27T02:43:28;9.20;99.90
6429;DHT22;3247;48.946;10.220;2022-09-27T02:46:08;9.20;99.90
6429;DHT22;3247;48.946;10.220;2022-09-27T02:48:51;9.30;99.90
6429;DHT22;3247;48.946;10.220;2022-09-27T02:57:21;9.20;99.90
6429;DHT22;3247;48.946;10.220;2022-09-27T03:02:03;9.30;99.90
6429;DHT22;3247;48.946;10.220;2022-09-27T03:04:42;9.20;99.90
6429;DHT22;3247;48.946;10.220;2022-09-27T03:07:08;9.20;99.90
6429;DHT22;3247;48.946;10.220;2022-09-27T03:12:06;9.20;99.90
6429;DHT22;3247;48.946;10.220;2022-09-27T03:14:31;9.20;99.90
6429;DHT22;3247;48.946;10.220;2022-09-27T03:16:57;9.20;99.90
6429;DHT22;3247;48.946;10.220;2022-09-27T03:19:23;9.20;99.90
6429;DHT22;3247;48.946;10.220;2022-09-27T03:21:49;9.20;99.90
6429;DHT22;3247;48.946;10.220;2022-09-27T03:24:20;9.30;99.90
6429;DHT22;3247;48.946;10.220;2022-09-27T03:26:45;9.20;99.90
6429;DHT22;3247;48.946;10.220;2022-09-27T03:29:11;9.20;99.90
6429;DHT22;3247;48.946;10.220;2022-09-27T03:31:36;9.20;99.90
6429;DHT22;3247;48.946;10.220;2022-09-27T03:34:02;9.20;99.90
6429;DHT22;3247;48.946;10.220;2022-09-27T03:36:27;9.20;99.90
6429;DHT22;3247;48.946;10.220;2022-09-27T03:38:53;9.20;99.90
6429;DHT22;3247;48.946;10.220;2022-09-27T03:41:18;9.10;99.90
6429;DHT22;3247;48.946;10.220;2022-09-27T03:43:44;9.10;99.90
6429;DHT22;3247;48.946;10.220;2022-09-27T03:46:09;9.10;99.90
6429;DHT22;3247;48.946;10.220;2022-09-27T03:48:35;9.10;99.90
6429;DHT22;3247;48.946;10.220;2022-09-27T03:51:00;9.10;99.90
6429;DHT22;3247;48.946;10.220;2022-09-27T03:53:26;9.10;99.90
6429;DHT22;3247;48.946;10.220;2022-09-27T03:55:51;9.10;99.90
6429;DHT22;3247;48.946;10.220;2022-09-27T03:58:17;9.10;99.90
6429;DHT22;3247;48.946;10.220;2022-09-27T04:00:44;9.00;99.90
6429;DHT22;3247;48.946;10.220;2022-09-27T04:03:09;9.00;99.90
6429;DHT22;3247;48.946;10.220;2022-09-27T04:05:36;9.00;99.90
6429;DHT22;3247;48.946;10.220;2022-09-27T04:08:01;8.90;99.90
6429;DHT22;3247;48.946;10.220;2022-09-27T04:10:27;8.90;99.90
6429;DHT22;3247;48.946;10.220;2022-09-27T04:12:52;8.80;99.90
6429;DHT22;3247;48.946;10.220;2022-09-27T04:15:18;8.80;99.90
6429;DHT22;3247;48.946;10.220;2022-09-27T04:17:43;8.70;99.90
6429;DHT22;3247;48.946;10.220;2022-09-27T04:20:10;8.60;99.90
6429;DHT22;3247;48.946;10.220;2022-09-27T04:22:39;8.60;99.90
6429;DHT22;3247;48.946;10.220;2022-09-27T04:25:05;8.50;99.90
6429;DHT22;3247;48.946;10.220;2022-09-27T04:27:31;8.40;99.90
6429;DHT22;3247;48.946;10.220;2022-09-27T04:29:57;8.40;99.90
6429;DHT22;3247;48.946;10.220;2022-09-27T04:32:22;8.40;99.90
6429;DHT22;3247;48.946;10.220;2022-09-27T04:34:47;8.40;99.90
6429;DHT22;3247;48.946;10.220;2022-09-27T04:37:32;8.40;99.90
6429;DHT22;3247;48.946;10.220;2022-09-27T04:39:57;8.40;99.90
6429;DHT22;3247;48.946;10.220;2022-09-27T04:42:23;8.40;99.90
6429;DHT22;3247;48.946;10.220;2022-09-27T04:44:49;8.40;99.90
6429;DHT22;3247;48.946;10.220;2022-09-27T04:47:14;8.40;99.90
6429;DHT22;3247;48.946;10.220;2022-09-27T04:49:40;8.40;99.90
6429;DHT22;3247;48.946;10.220;2022-09-27T04:52:05;8.40;99.90
6429;DHT22;3247;48.946;10.220;2022-09-27T04:54:31;8.50;99.90
6429;DHT22;3247;48.946;10.220;2022-09-27T04:56:56;8.50;99.90
6429;DHT22;3247;48.946;10.220;2022-09-27T04:59:22;8.50;99.90
6429;DHT22;3247;48.946;10.220;2022-09-27T05:01:47;8.60;99.90
6429;DHT22;3247;48.946;10.220;2022-09-27T05:04:14;8.50;99.90
6429;DHT22;3247;48.946;10.220;2022-09-27T05:06:40;8.50;99.90
6429;DHT22;3247;48.946;10.220;2022-09-27T05:09:05;8.50;99.90
6429;DHT22;3247;48.946;10.220;2022-09-27T05:11:31;8.60;99.90
6429;DHT22;3247;48.946;10.220;2022-09-27T05:13:56;8.50;99.90
6429;DHT22;3247;48.946;10.220;2022-09-27T05:16:22;8.60;99.90
6429;DHT22;3247;48.946;10.220;2022-09-27T05:18:47;8.50;99.90
6429;DHT22;3247;48.946;10.220;2022-09-27T05:21:13;8.50;99.90
6429;DHT22;3247;48.946;10.220;2022-09-27T05:23:38;8.50;99.90
6429;DHT22;3247;48.946;10.220;2022-09-27T05:26:04;8.50;99.90
6429;DHT22;3247;48.946;10.220;2022-09-27T05:28:30;8.50;99.90
6429;DHT22;3247;48.946;10.220;2022-09-27T05:30:57;8.60;99.90
6429;DHT22;3247;48.946;10.220;2022-09-27T05:33:23;8.50;99.90
6429;DHT22;3247;48.946;10.220;2022-09-27T05:35:52;8.60;99.90
6429;DHT22;3247;48.946;10.220;2022-09-27T05:38:18;8.50;99.90
6429;DHT22;3247;48.946;10.220;2022-09-27T05:40:43;8.50;99.90
6429;DHT22;3247;48.946;10.220;2022-09-27T05:43:12;8.60;99.90
6429;DHT22;3247;48.946;10.220;2022-09-27T05:45:37;8.50;99.90
6429;DHT22;3247;48.946;10.220;2022-09-27T05:48:03;8.50;99.90
6429;DHT22;3247;48.946;10.220;2022-09-27T05:50:29;8.50;99.90
6429;DHT22;3247;48.946;10.220;2022-09-27T05:52:55;8.50;99.90
6429;DHT22;3247;48.946;10.220;2022-09-27T05:55:20;8.50;99.90
6429;DHT22;3247;48.946;10.220;2022-09-27T06:00:20;8.50;99.90
6429;DHT22;3247;48.946;10.220;2022-09-27T06:02:52;8.50;99.90
6429;DHT22;3247;48.946;10.220;2022-09-27T06:05:17;8.50;99.90
6429;DHT22;3247;48.946;10.220;2022-09-27T06:07:44;8.50;99.90
6429;DHT22;3247;48.946;10.220;2022-09-27T06:10:10;8.50;99.90
6429;DHT22;3247;48.946;10.220;2022-09-27T06:12:35;8.50;99.90
6429;DHT22;3247;48.946;10.220;2022-09-27T06:15:01;8.50;99.90
6429;DHT22;3247;48.946;10.220;2022-09-27T06:17:27;8.50;99.90
6429;DHT22;3247;48.946;10.220;2022-09-27T06:19:52;8.50;99.90
6429;DHT22;3247;48.946;10.220;2022-09-27T06:22:19;8.60;99.90
6429;DHT22;3247;48.946;10.220;2022-09-27T06:24:45;8.50;99.90
6429;DHT22;3247;48.946;10.220;2022-09-27T06:27:10;8.60;99.90
6429;DHT22;3247;48.946;10.220;2022-09-27T06:29:36;8.60;99.90
6429;DHT22;3247;48.946;10.220;2022-09-27T06:32:02;8.40;99.90
6429;DHT22;3247;48.946;10.220;2022-09-27T06:34:28;8.60;99.90
6429;DHT22;3247;48.946;10.220;2022-09-27T06:36:54;8.60;99.90
6429;DHT22;3247;48.946;10.220;2022-09-27T06:39:21;8.60;99.90
6429;DHT22;3247;48.946;10.220;2022-09-27T06:41:46;8.60;99.90
6429;DHT22;3247;48.946;10.220;2022-09-27T06:44:12;8.50;99.90
6429;DHT22;3247;48.946;10.220;2022-09-27T06:46:38;8.60;99.90
6429;DHT22;3247;48.946;10.220;2022-09-27T06:49:04;8.60;99.90
6429;DHT22;3247;48.946;10.220;2022-09-27T06:51:31;8.60;99.90
6429;DHT22;3247;48.946;10.220;2022-09-27T06:53:56;8.70;99.90
6429;DHT22;3247;48.946;10.220;2022-09-27T06:56:21;8.70;99.90
6429;DHT22;3247;48.946;10.220;2022-09-27T06:58:47;8.70;99.90
6429;DHT22;3247;48.946;10.220;2022-09-27T07:01:31;8.70;99.90
6429;DHT22;3247;48.946;10.220;2022-09-27T07:03:56;8.70;99.90
6429;DHT22;3247;48.946;10.220;2022-09-27T07:06:23;8.70;99.90
6429;DHT22;3247;48.946;10.220;2022-09-27T07:08:52;8.70;99.90
6429;DHT22;3247;48.946;10.220;2022-09-27T07:11:18;8.70;99.90
6429;DHT22;3247;48.946;10.220;2022-09-27T07:13:44;8.60;99.90
6429;DHT22;3247;48.946;10.220;2022-09-27T07:16:10;8.60;99.90
6429;DHT22;3247;48.946;10.220;2022-09-27T07:18:36;8.60;99.90
6429;DHT22;3247;48.946;10.220;2022-09-27T07:21:01;8.60;99.90
6429;DHT22;3247;48.946;10.220;2022-09-27T07:23:27;8.60;99.90
6429;DHT22;3247;48.946;10.220;2022-09-27T07:25:53;8.60;99.90
6429;DHT22;3247;48.946;10.220;2022-09-27T07:28:19;8.60;99.90
6429;DHT22;3247;48.946;10.220;2022-09-27T07:30:44;8.70;99.90
6429;DHT22;3247;48.946;10.220;2022-09-27T07:33:10;8.70;99.90
6429;DHT22;3247;48.946;10.220;2022-09-27T07:35:39;8.70;99.90
6429;DHT22;3247;48.946;10.220;2022-09-27T07:38:05;8.80;99.90
6429;DHT22;3247;48.946;10.220;2022-09-27T07:40:33;9.00;99.90
6429;DHT22;3247;48.946;10.220;2022-09-27T07:42:58;9.10;99.90
6429;DHT22;3247;48.946;10.220;2022-09-27T07:45:24;9.40;99.90
6429;DHT22;3247;48.946;10.220;2022-09-27T07:47:50;9.70;99.90
6429;DHT22;3247;48.946;10.220;2022-09-27T07:50:16;9.80;99.90
6429;DHT22;3247;48.946;10.220;2022-09-27T07:52:51;9.80;99.90
6429;DHT22;3247;48.946;10.220;2022-09-27T07:55:17;10.00;99.90
6429;DHT22;3247;48.946;10.220;2022-09-27T07:57:42;10.00;99.90
6429;DHT22;3247;48.946;10.220;2022-09-27T08:00:15;9.80;99.90
6429;DHT22;3247;48.946;10.220;2022-09-27T08:02:41;9.70;99.90
6429;DHT22;3247;48.946;10.220;2022-09-27T08:05:07;9.70;99.90
6429;DHT22;3247;48.946;10.220;2022-09-27T08:07:33;9.60;99.90
6429;DHT22;3247;48.946;10.220;2022-09-27T08:09:58;9.50;99.90
6429;DHT22;3247;48.946;10.220;2022-09-27T08:12:24;9.60;99.90
6429;DHT22;3247;48.946;10.220;2022-09-27T08:14:50;9.60;99.90
6429;DHT22;3247;48.946;10.220;2022-09-27T08:17:16;9.80;99.90
6429;DHT22;3247;48.946;10.220;2022-09-27T08:19:42;9.60;99.90
6429;DHT22;3247;48.946;10.220;2022-09-27T08:22:09;9.60;99.90
6429;DHT22;3247;48.946;10.220;2022-09-27T08:24:41;9.50;99.90
6429;DHT22;3247;48.946;10.220;2022-09-27T08:27:07;9.50;99.90
6429;DHT22;3247;48.946;10.220;2022-09-27T08:29:33;9.50;99.90
6429;DHT22;3247;48.946;10.220;2022-09-27T08:31:58;9.50;99.90
6429;DHT22;3247;48.946;10.220;2022-09-27T08:34:24;9.60;99.90
6429;DHT22;3247;48.946;10.220;2022-09-27T08:36:49;9.60;99.90
6429;DHT22;3247;48.946;10.220;2022-09-27T08:39:15;9.70;99.90
6429;DHT22;3247;48.946;10.220;2022-09-27T08:42:01;9.90;99.90
6429;DHT22;3247;48.946;10.220;2022-09-27T08:44:37;10.00;99.90
6429;DHT22;3247;48.946;10.220;2022-09-27T08:47:08;10.30;99.90
6429;DHT22;3247;48.946;10.220;2022-09-27T08:49:47;10.60;99.90
6429;DHT22;3247;48.946;10.220;2022-09-27T08:52:21;10.40;99.90
6429;DHT22;3247;48.946;10.220;2022-09-27T08:54:51;10.50;99.90
6429;DHT22;3247;48.946;10.220;2022-09-27T08:57:17;10.50;99.90
6429;DHT22;3247;48.946;10.220;2022-09-27T08:59:47;10.60;99.90
6429;DHT22;3247;48.946;10.220;2022-09-27T09:02:18;10.60;99.90
6429;DHT22;3247;48.946;10.220;2022-09-27T09:04:45;10.60;99.90
6429;DHT22;3247;48.946;10.220;2022-09-27T09:10:02;10.50;99.90
6429;DHT22;3247;48.946;10.220;2022-09-27T09:20:22;10.20;99.90
6429;DHT22;3247;48.946;10.220;2022-09-27T09:23:56;10.10;99.90
6429;DHT22;3247;48.946;10.220;2022-09-27T09:25:53;10.20;99.90
6429;DHT22;3247;48.946;10.220;2022-09-27T09:31:10;10.10;99.90
6429;DHT22;3247;48.946;10.220;2022-09-27T09:33:38;10.10;99.90
6429;DHT22;3247;48.946;10.220;2022-09-27T09:36:15;10.10;99.90
6429;DHT22;3247;48.946;10.220;2022-09-27T09:38:49;10.40;99.90
6429;DHT22;3247;48.946;10.220;2022-09-27T09:41:33;10.70;99.90
6429;DHT22;3247;48.946;10.220;2022-09-27T09:46:41;10.80;99.90
6429;DHT22;3247;48.946;10.220;2022-09-27T09:51:46;11.00;99.90
6429;DHT22;3247;48.946;10.220;2022-09-27T09:54:23;11.40;99.90
6429;DHT22;3247;48.946;10.220;2022-09-27T09:56:55;11.30;99.90
6429;DHT22;3247;48.946;10.220;2022-09-27T09:59:33;11.20;99.90
6429;DHT22;3247;48.946;10.220;2022-09-27T10:02:02;11.20;99.90
6429;DHT22;3247;48.946;10.220;2022-09-27T10:04:37;11.10;99.90
6429;DHT22;3247;48.946;10.220;2022-09-27T10:07:02;11.20;99.90
6429;DHT22;3247;48.946;10.220;2022-09-27T10:09:27;11.20;99.90
6429;DHT22;3247;48.946;10.220;2022-09-27T10:11:53;10.90;99.90
6429;DHT22;3247;48.946;10.220;2022-09-27T10:14:19;10.60;99.90
6429;DHT22;3247;48.946;10.220;2022-09-27T10:16:47;10.50;99.90
6429;DHT22;3247;48.946;10.220;2022-09-27T10:19:14;10.70;99.90
6429;DHT22;3247;48.946;10.220;2022-09-27T10:21:41;10.80;99.90
6429;DHT22;3247;48.946;10.220;2022-09-27T10:24:13;11.10;99.90
6429;DHT22;3247;48.946;10.220;2022-09-27T10:26:39;11.30;99.90
6429;DHT22;3247;48.946;10.220;2022-09-27T10:31:42;11.40;99.90
6429;DHT22;3247;48.946;10.220;2022-09-27T10:37:04;11.60;99.90
6429;DHT22;3247;48.946;10.220;2022-09-27T10:39:30;11.50;99.90
6429;DHT22;3247;48.946;10.220;2022-09-27T10:41:56;11.50;99.90
6429;DHT22;3247;48.946;10.220;2022-09-27T10:46:48;11.20;99.90
6429;DHT22;3247;48.946;10.220;2022-09-27T10:49:28;11.00;99.90
6429;DHT22;3247;48.946;10.220;2022-09-27T10:52:01;10.90;99.90
6429;DHT22;3247;48.946;10.220;2022-09-27T10:54:28;10.70;99.90
6429;DHT22;3247;48.946;10.220;2022-09-27T10:57:04;10.60;99.90
6429;DHT22;3247;48.946;10.220;2022-09-27T10:59:33;10.70;99.90
6429;DHT22;3247;48.946;10.220;2022-09-27T11:02:00;11.00;99.90
6429;DHT22;3247;48.946;10.220;2022-09-27T11:04:33;11.20;99.90
6429;DHT22;3247;48.946;10.220;2022-09-27T11:07:13;11.30;99.90
6429;DHT22;3247;48.946;10.220;2022-09-27T11:09:56;11.30;99.90
6429;DHT22;3247;48.946;10.220;2022-09-27T11:12:27;11.30;99.90
6429;DHT22;3247;48.946;10.220;2022-09-27T11:14:55;11.20;99.90
6429;DHT22;3247;48.946;10.220;2022-09-27T11:17:29;11.30;99.90
6429;DHT22;3247;48.946;10.220;2022-09-27T11:20:06;11.30;99.90
6429;DHT22;3247;48.946;10.220;2022-09-27T11:25:19;11.40;99.90
6429;DHT22;3247;48.946;10.220;2022-09-27T11:27:50;11.60;99.90
6429;DHT22;3247;48.946;10.220;2022-09-27T11:30:20;11.70;99.90
6429;DHT22;3247;48.946;10.220;2022-09-27T11:35:38;11.70;99.90
6429;DHT22;3247;48.946;10.220;2022-09-27T11:38:30;11.70;99.90
6429;DHT22;3247;48.946;10.220;2022-09-27T11:41:02;11.80;99.90
6429;DHT22;3247;48.946;10.220;2022-09-27T11:46:17;12.00;99.90
6429;DHT22;3247;48.946;10.220;2022-09-27T11:48:49;12.20;99.90
6429;DHT22;3247;48.946;10.220;2022-09-27T11:54:40;12.10;99.90
6429;DHT22;3247;48.946;10.220;2022-09-27T11:57:03;11.90;99.90
6429;DHT22;3247;48.946;10.220;2022-09-27T11:59:47;11.80;99.90
6429;DHT22;3247;48.946;10.220;2022-09-27T12:09:47;11.40;99.90
6429;DHT22;3247;48.946;10.220;2022-09-27T12:12:32;11.20;99.90
6429;DHT22;3247;48.946;10.220;2022-09-27T12:15:00;11.00;99.90
6429;DHT22;3247;48.946;10.220;2022-09-27T12:17:28;10.80;99.90
6429;DHT22;3247;48.946;10.220;2022-09-27T12:19:56;10.50;99.90
6429;DHT22;3247;48.946;10.220;2022-09-27T12:22:33;10.50;99.90
6429;DHT22;3247;48.946;10.220;2022-09-27T12:25:02;10.60;99.90
6429;DHT22;3247;48.946;10.220;2022-09-27T12:29:56;10.60;99.90
6429;DHT22;3247;48.946;10.220;2022-09-27T12:32:29;10.70;99.90
6429;DHT22;3247;48.946;10.220;2022-09-27T12:35:18;10.70;99.90
6429;DHT22;3247;48.946;10.220;2022-09-27T12:37:46;10.60;99.90
6429;DHT22;3247;48.946;10.220;2022-09-27T12:40:18;10.60;99.90
6429;DHT22;3247;48.946;10.220;2022-09-27T12:42:46;10.70;99.90
6429;DHT22;3247;48.946;10.220;2022-09-27T12:45:15;10.90;99.90
6429;DHT22;3247;48.946;10.220;2022-09-27T12:47:55;11.10;99.90
6429;DHT22;3247;48.946;10.220;2022-09-27T12:50:28;11.30;99.90
6429;DHT22;3247;48.946;10.220;2022-09-27T12:53:03;11.40;99.90
6429;DHT22;3247;48.946;10.220;2022-09-27T13:11:11;9.80;99.90
6429;DHT22;3247;48.946;10.220;2022-09-27T13:13:39;9.10;99.90
6429;DHT22;3247;48.946;10.220;2022-09-27T13:16:05;9.00;99.90
6429;DHT22;3247;48.946;10.220;2022-09-27T13:20:58;9.40;99.90
6429;DHT22;3247;48.946;10.220;2022-09-27T13:26:00;9.90;99.90
6429;DHT22;3247;48.946;10.220;2022-09-27T13:31:08;9.70;99.90
6429;DHT22;3247;48.946;10.220;2022-09-27T13:39:17;9.50;99.90
6429;DHT22;3247;48.946;10.220;2022-09-27T13:46:42;9.60;99.90
6429;DHT22;3247;48.946;10.220;2022-09-27T13:49:14;9.80;99.90
6429;DHT22;3247;48.946;10.220;2022-09-27T13:51:50;9.80;99.90
6429;DHT22;3247;48.946;10.220;2022-09-27T13:54:36;9.60;99.90
6429;DHT22;3247;48.946;10.220;2022-09-27T13:57:03;9.70;99.90
6429;DHT22;3247;48.946;10.220;2022-09-27T14:02:35;9.80;99.90
6429;DHT22;3247;48.946;10.220;2022-09-27T14:04:51;9.90;99.90
6429;DHT22;3247;48.946;10.220;2022-09-27T14:07:18;10.00;99.90
6429;DHT22;3247;48.946;10.220;2022-09-27T14:09:47;10.10;99.90
6429;DHT22;3247;48.946;10.220;2022-09-27T14:12:17;10.10;99.90
6429;DHT22;3247;48.946;10.220;2022-09-27T14:14:43;10.20;99.90
6429;DHT22;3247;48.946;10.220;2022-09-27T14:17:09;10.20;99.90
6429;DHT22;3247;48.946;10.220;2022-09-27T14:19:38;10.10;99.90
6429;DHT22;3247;48.946;10.220;2022-09-27T14:22:14;10.10;99.90
6429;DHT22;3247;48.946;10.220;2022-09-27T14:27:11;10.00;99.90
6429;DHT22;3247;48.946;10.220;2022-09-27T14:32:10;9.70;99.90
6429;DHT22;3247;48.946;10.220;2022-09-27T14:34:36;9.60;99.90
6429;DHT22;3247;48.946;10.220;2022-09-27T14:37:01;9.50;99.90
6429;DHT22;3247;48.946;10.220;2022-09-27T14:39:52;9.40;99.90
6429;DHT22;3247;48.946;10.220;2022-09-27T14:42:18;9.50;99.90
6429;DHT22;3247;48.946;10.220;2022-09-27T14:44:45;9.50;99.90
6429;DHT22;3247;48.946;10.220;2022-09-27T14:49:56;9.40;99.90
6429;DHT22;3247;48.946;10.220;2022-09-27T14:52:25;9.30;99.90
6429;DHT22;3247;48.946;10.220;2022-09-27T14:55:35;9.10;99.90
6429;DHT22;3247;48.946;10.220;2022-09-27T14:57:54;9.00;99.90
6429;DHT22;3247;48.946;10.220;2022-09-27T15:00:24;9.00;99.90
6429;DHT22;3247;48.946;10.220;2022-09-27T15:02:51;9.00;99.90
6429;DHT22;3247;48.946;10.220;2022-09-27T15:05:23;8.90;99.90
6429;DHT22;3247;48.946;10.220;2022-09-27T15:07:49;8.80;99.90
6429;DHT22;3247;48.946;10.220;2022-09-27T15:10:16;8.80;99.90
6429;DHT22;3247;48.946;10.220;2022-09-27T15:12:43;8.80;99.90
6429;DHT22;3247;48.946;10.220;2022-09-27T15:15:16;8.90;99.90
6429;DHT22;3247;48.946;10.220;2022-09-27T15:17:44;8.80;99.90
6429;DHT22;3247;48.946;10.220;2022-09-27T15:20:31;8.90;99.90
6429;DHT22;3247;48.946;10.220;2022-09-27T15:22:58;9.00;99.90
6429;DHT22;3247;48.946;10.220;2022-09-27T15:25:25;9.00;99.90
6429;DHT22;3247;48.946;10.220;2022-09-27T15:27:56;9.00;99.90
6429;DHT22;3247;48.946;10.220;2022-09-27T15:30:24;9.10;99.90
6429;DHT22;3247;48.946;10.220;2022-09-27T15:32:51;9.10;99.90
6429;DHT22;3247;48.946;10.220;2022-09-27T15:35:28;9.10;99.90
6429;DHT22;3247;48.946;10.220;2022-09-27T15:43:56;8.80;99.90
6429;DHT22;3247;48.946;10.220;2022-09-27T15:46:07;8.80;99.90
6429;DHT22;3247;48.946;10.220;2022-09-27T15:51:37;8.60;99.90
6429;DHT22;3247;48.946;10.220;2022-09-27T15:54:02;8.60;99.90
6429;DHT22;3247;48.946;10.220;2022-09-27T15:56:28;8.60;99.90
6429;DHT22;3247;48.946;10.220;2022-09-27T15:58:53;8.60;99.90
6429;DHT22;3247;48.946;10.220;2022-09-27T16:01:19;8.60;99.90
6429;DHT22;3247;48.946;10.220;2022-09-27T16:03:45;8.50;99.90
6429;DHT22;3247;48.946;10.220;2022-09-27T16:06:11;8.60;99.90
6429;DHT22;3247;48.946;10.220;2022-09-27T16:08:37;8.70;99.90
6429;DHT22;3247;48.946;10.220;2022-09-27T16:11:02;8.70;99.90
6429;DHT22;3247;48.946;10.220;2022-09-27T16:13:30;8.70;99.90
6429;DHT22;3247;48.946;10.220;2022-09-27T16:15:55;8.70;99.90
6429;DHT22;3247;48.946;10.220;2022-09-27T16:18:21;8.70;99.90
6429;DHT22;3247;48.946;10.220;2022-09-27T16:20:46;8.80;99.90
6429;DHT22;3247;48.946;10.220;2022-09-27T16:23:15;8.70;99.90
6429;DHT22;3247;48.946;10.220;2022-09-27T16:25:40;8.70;99.90
6429;DHT22;3247;48.946;10.220;2022-09-27T16:28:06;8.70;99.90
6429;DHT22;3247;48.946;10.220;2022-09-27T16:30:34;8.70;99.90
6429;DHT22;3247;48.946;10.220;2022-09-27T16:32:59;8.70;99.90
6429;DHT22;3247;48.946;10.220;2022-09-27T16:35:25;8.70;99.90
6429;DHT22;3247;48.946;10.220;2022-09-27T16:37:51;8.70;99.90
6429;DHT22;3247;48.946;10.220;2022-09-27T16:40:16;8.70;99.90
6429;DHT22;3247;48.946;10.220;2022-09-27T16:42:42;8.70;99.90
6429;DHT22;3247;48.946;10.220;2022-09-27T16:45:09;8.50;99.90
6429;DHT22;3247;48.946;10.220;2022-09-27T16:47:34;8.40;99.90
6429;DHT22;3247;48.946;10.220;2022-09-27T16:50:00;8.30;99.90
6429;DHT22;3247;48.946;10.220;2022-09-27T16:52:44;8.20;99.90
6429;DHT22;3247;48.946;10.220;2022-09-27T16:55:14;8.10;99.90
6429;DHT22;3247;48.946;10.220;2022-09-27T16:57:42;8.00;99.90
6429;DHT22;3247;48.946;10.220;2022-09-27T17:00:07;7.90;99.90
6429;DHT22;3247;48.946;10.220;2022-09-27T17:02:33;7.90;99.90
6429;DHT22;3247;48.946;10.220;2022-09-27T17:04:59;7.80;99.90
6429;DHT22;3247;48.946;10.220;2022-09-27T17:07:24;7.70;99.90
6429;DHT22;3247;48.946;10.220;2022-09-27T17:09:50;7.60;99.90
6429;DHT22;3247;48.946;10.220;2022-09-27T17:12:15;7.60;99.90
6429;DHT22;3247;48.946;10.220;2022-09-27T17:14:40;7.60;99.90
6429;DHT22;3247;48.946;10.220;2022-09-27T17:17:06;7.50;99.90
6429;DHT22;3247;48.946;10.220;2022-09-27T17:19:32;7.50;99.90
6429;DHT22;3247;48.946;10.220;2022-09-27T17:21:58;7.50;99.90
6429;DHT22;3247;48.946;10.220;2022-09-27T17:24:23;7.50;99.90
6429;DHT22;3247;48.946;10.220;2022-09-27T17:26:49;7.50;99.90
6429;DHT22;3247;48.946;10.220;2022-09-27T17:29:15;7.40;99.90
6429;DHT22;3247;48.946;10.220;2022-09-27T17:31:41;7.40;99.90
6429;DHT22;3247;48.946;10.220;2022-09-27T17:34:07;7.30;99.90
6429;DHT22;3247;48.946;10.220;2022-09-27T17:36:36;7.30;99.90
6429;DHT22;3247;48.946;10.220;2022-09-27T17:39:04;7.30;99.90
6429;DHT22;3247;48.946;10.220;2022-09-27T17:41:29;7.20;99.90
6429;DHT22;3247;48.946;10.220;2022-09-27T17:43:56;7.20;99.90
6429;DHT22;3247;48.946;10.220;2022-09-27T17:46:23;7.20;99.90
6429;DHT22;3247;48.946;10.220;2022-09-27T17:48:49;7.20;99.90
6429;DHT22;3247;48.946;10.220;2022-09-27T17:51:34;7.20;99.90
6429;DHT22;3247;48.946;10.220;2022-09-27T17:54:00;7.20;99.90
6429;DHT22;3247;48.946;10.220;2022-09-27T17:56:26;7.20;99.90
6429;DHT22;3247;48.946;10.220;2022-09-27T17:58:52;7.10;99.90
6429;DHT22;3247;48.946;10.220;2022-09-27T18:01:19;7.10;99.90
6429;DHT22;3247;48.946;10.220;2022-09-27T18:03:45;7.10;99.90
6429;DHT22;3247;48.946;10.220;2022-09-27T18:06:11;7.10;99.90
6429;DHT22;3247;48.946;10.220;2022-09-27T18:08:37;7.10;99.90
6429;DHT22;3247;48.946;10.220;2022-09-27T18:11:07;7.00;99.90
6429;DHT22;3247;48.946;10.220;2022-09-27T18:13:33;7.00;99.90
6429;DHT22;3247;48.946;10.220;2022-09-27T18:16:08;6.90;99.90
6429;DHT22;3247;48.946;10.220;2022-09-27T18:18:34;6.90;99.90
6429;DHT22;3247;48.946;10.220;2022-09-27T18:21:04;6.80;99.90
6429;DHT22;3247;48.946;10.220;2022-09-27T18:23:33;6.70;99.90
6429;DHT22;3247;48.946;10.220;2022-09-27T18:25:58;6.70;99.90
6429;DHT22;3247;48.946;10.220;2022-09-27T18:28:25;6.60;99.90
6429;DHT22;3247;48.946;10.220;2022-09-27T18:30:51;6.60;99.90